»·PEaware :: ASA1809 KSFO-KPDX

ASA1809 :: KSFO-KPDX

FLIGHT INFORMATION

Flight Status: Arrived
Operator:
Alaska Airlines
More flights by this operator :: More flights under this callsign
Pilot: John C. (18682)
Aircraft: AIRBUS A320
(A320)
More flights by this aircraft type
Origin: KSFO San Francisco Intl
United States
Destination: KPDX Portland Intl
United States
More flights between these airports :: More routes between these airports
Route: +TRUKN2 GRTFL MACHU TMBRS2
File this flight plan on PilotEdge
Remarks:
Altitude:
(Current/Filed)
38,000ft
Speed:
(Current/Filed)
440kts
Departed: 03-May-18 05:17 PM
Arrived: 03-May-18 06:36 PM
Distance/Time
Traveled:
478nm/1:19
Distance/Time
To Go:
Arrived

Flight Plot

Page will automatically refresh every two minutes.


Map Options




Map Legend


Flown Route
Filed Route
Departure Airport
Arrival Airport
Navaid (VOR, NDB)
Fix

Horizontal Profiles

Position Reports

Time Latitude Longitude Heading Altitude Ground
Speed
03-May-18 16:49 37.612263 -122.389055 298 31ft 0kts
03-May-18 16:50 37.612263 -122.389055 298 31ft 0kts
03-May-18 16:51 37.612263 -122.389055 298 31ft 0kts
03-May-18 16:52 37.612263 -122.389055 298 31ft 0kts
03-May-18 16:53 37.612263 -122.389055 298 31ft 0kts
03-May-18 16:54 37.612263 -122.389055 298 31ft 0kts
03-May-18 16:55 37.612263 -122.389055 298 31ft 0kts
03-May-18 16:56 37.612263 -122.389055 298 31ft 0kts
03-May-18 16:57 37.612263 -122.389055 298 31ft 0kts
03-May-18 16:58 37.612263 -122.389055 298 31ft 0kts
03-May-18 17:00 37.612263 -122.389055 298 31ft 0kts
03-May-18 17:01 37.612263 -122.389055 298 31ft 0kts
03-May-18 17:02 37.612263 -122.389055 298 31ft 0kts
03-May-18 17:03 37.612263 -122.389055 298 31ft 0kts
03-May-18 17:04 37.612263 -122.389055 298 31ft 0kts
03-May-18 17:05 37.612263 -122.389055 298 31ft 0kts
03-May-18 17:06 37.612263 -122.389055 298 31ft 0kts
03-May-18 17:07 37.612263 -122.389055 298 31ft 0kts
03-May-18 17:08 37.612263 -122.389055 298 31ft 0kts
03-May-18 17:09 37.612097 -122.388666 298 32ft 2kts
03-May-18 17:10 37.611923 -122.388056 252 32ft 2kts
03-May-18 17:11 37.612110 -122.387801 207 32ft 0kts
03-May-18 17:12 37.612110 -122.387801 207 32ft 0kts
03-May-18 17:13 37.611186 -122.388198 141 32ft 5kts
03-May-18 17:14 37.610047 -122.385382 118 32ft 2kts
03-May-18 17:15 37.609216 -122.383697 124 32ft 3kts
03-May-18 17:16 37.609085 -122.383448 123 32ft 0kts
03-May-18 17:17 37.617066 -122.376896 25 28ft 149kts
03-May-18 17:18 37.652040 -122.332261 50 3012ft 214kts
03-May-18 17:19 37.692727 -122.262725 54 5948ft 272kts
03-May-18 17:20 37.750570 -122.214747 359 9530ft 279kts
03-May-18 17:21 37.832673 -122.217345 359 11994ft 326kts
03-May-18 17:22 37.924809 -122.219973 0 14990ft 339kts
03-May-18 17:23 38.020329 -122.222571 359 17713ft 350kts
03-May-18 17:24 38.117724 -122.225176 359 20120ft 360kts
03-May-18 17:25 38.218667 -122.227762 359 22319ft 369kts
03-May-18 17:26 38.321952 -122.230592 358 24250ft 379kts
03-May-18 17:27 38.428397 -122.239347 355 25981ft 389kts
03-May-18 17:28 38.536985 -122.250627 354 27563ft 398kts
03-May-18 17:29 38.648116 -122.262209 354 28987ft 406kts
03-May-18 17:30 38.761604 -122.274074 353 30263ft 415kts
03-May-18 17:31 38.877400 -122.286218 353 31407ft 423kts
03-May-18 17:32 38.995339 -122.298627 353 32308ft 433kts
03-May-18 17:33 39.115233 -122.311284 352 33147ft 441kts
03-May-18 17:34 39.237174 -122.324215 352 34304ft 439kts
03-May-18 17:35 39.357618 -122.337024 352 35354ft 437kts
03-May-18 17:36 39.477897 -122.349855 352 36324ft 435kts
03-May-18 17:37 39.597975 -122.362707 352 37134ft 435kts
03-May-18 17:38 39.718179 -122.375617 352 37823ft 435kts
03-May-18 17:39 39.837997 -122.388531 352 38288ft 435kts
03-May-18 17:40 39.958171 -122.401533 352 38294ft 435kts
03-May-18 17:41 40.078420 -122.414583 352 38295ft 435kts
03-May-18 17:42 40.197894 -122.427598 352 38295ft 435kts
03-May-18 17:43 40.318319 -122.440759 352 38288ft 435kts
03-May-18 17:44 40.438416 -122.453936 352 38286ft 435kts
03-May-18 17:45 40.558524 -122.467159 352 38284ft 435kts
03-May-18 17:46 40.678415 -122.480406 352 38283ft 435kts
03-May-18 17:47 40.798651 -122.493741 352 38283ft 434kts
03-May-18 17:48 40.918559 -122.507091 352 38240ft 436kts
03-May-18 17:49 41.039102 -122.520557 351 38247ft 438kts
03-May-18 17:50 41.158343 -122.533925 351 38244ft 443kts
03-May-18 17:51 41.281684 -122.547804 351 38299ft 447kts
03-May-18 17:52 41.403600 -122.561580 351 38326ft 449kts
03-May-18 17:53 41.527514 -122.575471 352 38319ft 449kts
03-May-18 17:54 41.652105 -122.583591 353 38301ft 449kts
03-May-18 17:55 41.776464 -122.591707 353 38283ft 448kts
03-May-18 17:56 41.900293 -122.599812 353 38273ft 447kts
03-May-18 17:57 42.024235 -122.607955 353 38271ft 447kts
03-May-18 17:58 42.147592 -122.616091 353 38264ft 447kts
03-May-18 17:59 42.271172 -122.624308 353 38250ft 447kts
03-May-18 18:00 42.395326 -122.632603 353 38252ft 447kts
03-May-18 18:01 42.518922 -122.640894 353 38255ft 447kts
03-May-18 18:01 42.622425 -122.647861 353 38257ft 447kts
03-May-18 18:03 42.766738 -122.657613 352 38264ft 447kts
03-May-18 18:04 42.890497 -122.666014 352 38264ft 447kts
03-May-18 18:05 43.014854 -122.674492 352 38228ft 450kts
03-May-18 18:06 43.139330 -122.683007 352 38241ft 455kts
03-May-18 18:07 43.266075 -122.691717 352 38294ft 457kts
03-May-18 18:07 43.371614 -122.699001 352 38308ft 458kts
03-May-18 18:08 43.497756 -122.707700 352 37799ft 455kts
03-May-18 18:09 43.623051 -122.716369 352 35619ft 454kts
03-May-18 18:10 43.746883 -122.724962 352 33482ft 448kts
03-May-18 18:11 43.867330 -122.733369 352 31414ft 439kts
03-May-18 18:12 43.986852 -122.741739 352 29299ft 430kts
03-May-18 18:13 44.103238 -122.749921 353 27183ft 421kts
03-May-18 18:14 44.216275 -122.746587 0 25089ft 414kts
03-May-18 18:15 44.327638 -122.735659 0 23133ft 400kts
03-May-18 18:16 44.435874 -122.724973 0 21134ft 387kts
03-May-18 18:17 44.541521 -122.714489 0 19162ft 374kts
03-May-18 18:18 44.640304 -122.704630 1 17380ft 360kts
03-May-18 18:19 44.737654 -122.694843 1 15613ft 346kts
03-May-18 18:20 44.831897 -122.685347 1 13833ft 335kts
03-May-18 18:21 44.922797 -122.676195 1 12151ft 323kts
03-May-18 18:22 45.008312 -122.667564 1 11020ft 299kts
03-May-18 18:23 45.089661 -122.659286 1 9689ft 289kts
03-May-18 18:24 45.168153 -122.651279 1 8365ft 283kts
03-May-18 18:25 45.245593 -122.642456 12 7058ft 278kts
03-May-18 18:26 45.311873 -122.586772 32 5675ft 280kts
03-May-18 18:27 45.375613 -122.529498 33 4464ft 251kts
03-May-18 18:28 45.425368 -122.472673 64 3269ft 220kts
03-May-18 18:29 45.449240 -122.401108 49 2902ft 189kts
03-May-18 18:30 45.497946 -122.378175 357 2900ft 183kts
03-May-18 18:31 45.524970 -122.434641 292 2319ft 183kts
03-May-18 18:32 45.545829 -122.494174 297 1244ft 162kts
03-May-18 18:33 45.564209 -122.542273 298 670ft 138kts
03-May-18 18:34 45.581694 -122.586899 297 61ft 137kts
03-May-18 18:35 45.589246 -122.604612 9 38ft 0kts
03-May-18 18:36 45.589591 -122.603671 129 38ft 8kts
03-May-18 18:37 45.589308 -122.600156 60 38ft 7kts
03-May-18 18:38 45.589618 -122.599438 58 38ft 0kts
03-May-18 18:39 45.589618 -122.599438 58 38ft 0kts
03-May-18 18:40 45.589618 -122.599438 58 38ft 0kts
03-May-18 18:41 45.589618 -122.599438 58 38ft 0kts
03-May-18 18:42 45.589618 -122.599438 58 38ft 0kts
03-May-18 18:43 45.589618 -122.599438 58 38ft 0kts
03-May-18 18:44 45.589618 -122.599438 58 38ft 0kts
03-May-18 18:45 45.589618 -122.599438 58 38ft 0kts
03-May-18 18:46 45.589618 -122.599438 58 38ft 0kts
03-May-18 18:47 45.589618 -122.599438 58 38ft 0kts
03-May-18 18:48 45.589618 -122.599438 58 38ft 0kts
03-May-18 18:49 45.589618 -122.599438 58 38ft 0kts

Navigation Log

Ident Type
1. KSFO Airport
2. KPDX Airport